sensor_id;sensor_type;location;lat;lon;timestamp;temperature;humidity
3208;DHT22;1616;52.394;9.756;2023-12-29T00:01:16;11.60;95.30
3208;DHT22;1616;52.394;9.756;2023-12-29T00:03:41;11.70;95.30
3208;DHT22;1616;52.394;9.756;2023-12-29T00:06:07;11.70;95.30
3208;DHT22;1616;52.394;9.756;2023-12-29T00:08:33;11.70;95.20
3208;DHT22;1616;52.394;9.756;2023-12-29T00:10:59;11.70;96.30
3208;DHT22;1616;52.394;9.756;2023-12-29T00:13:25;11.70;95.00
3208;DHT22;1616;52.394;9.756;2023-12-29T00:15:54;11.70;95.00
3208;DHT22;1616;52.394;9.756;2023-12-29T00:18:20;11.70;94.90
3208;DHT22;1616;52.394;9.756;2023-12-29T00:20:46;11.80;95.10
3208;DHT22;1616;52.394;9.756;2023-12-29T00:23:12;11.80;95.00
3208;DHT22;1616;52.394;9.756;2023-12-29T00:25:38;11.80;94.90
3208;DHT22;1616;52.394;9.756;2023-12-29T00:28:06;11.80;94.90
3208;DHT22;1616;52.394;9.756;2023-12-29T00:30:32;11.80;94.90
3208;DHT22;1616;52.394;9.756;2023-12-29T00:32:58;11.80;94.80
3208;DHT22;1616;52.394;9.756;2023-12-29T00:35:24;11.80;94.80
3208;DHT22;1616;52.394;9.756;2023-12-29T00:37:51;11.80;94.90
3208;DHT22;1616;52.394;9.756;2023-12-29T00:40:16;11.70;94.80
3208;DHT22;1616;52.394;9.756;2023-12-29T00:42:42;11.70;95.00
3208;DHT22;1616;52.394;9.756;2023-12-29T00:45:08;11.80;95.10
3208;DHT22;1616;52.394;9.756;2023-12-29T00:47:34;11.80;95.30
3208;DHT22;1616;52.394;9.756;2023-12-29T00:50:00;11.80;95.30
3208;DHT22;1616;52.394;9.756;2023-12-29T00:52:27;11.80;95.50
3208;DHT22;1616;52.394;9.756;2023-12-29T00:54:53;11.80;95.50
3208;DHT22;1616;52.394;9.756;2023-12-29T00:57:19;11.80;95.60
3208;DHT22;1616;52.394;9.756;2023-12-29T00:59:46;11.80;95.70
3208;DHT22;1616;52.394;9.756;2023-12-29T01:02:12;11.80;95.70
3208;DHT22;1616;52.394;9.756;2023-12-29T01:04:38;11.80;97.10
3208;DHT22;1616;52.394;9.756;2023-12-29T01:07:07;11.80;96.00
3208;DHT22;1616;52.394;9.756;2023-12-29T01:09:37;11.80;96.10
3208;DHT22;1616;52.394;9.756;2023-12-29T01:12:04;11.80;96.10
3208;DHT22;1616;52.394;9.756;2023-12-29T01:14:29;11.80;96.30
3208;DHT22;1616;52.394;9.756;2023-12-29T01:16:55;11.80;96.50
3208;DHT22;1616;52.394;9.756;2023-12-29T01:19:22;11.80;96.50
3208;DHT22;1616;52.394;9.756;2023-12-29T01:21:47;11.80;96.60
3208;DHT22;1616;52.394;9.756;2023-12-29T01:24:13;11.80;96.80
3208;DHT22;1616;52.394;9.756;2023-12-29T01:26:39;11.80;97.00
3208;DHT22;1616;52.394;9.756;2023-12-29T01:29:05;11.80;97.10
3208;DHT22;1616;52.394;9.756;2023-12-29T01:31:31;11.80;97.10
3208;DHT22;1616;52.394;9.756;2023-12-29T01:33:57;11.80;97.20
3208;DHT22;1616;52.394;9.756;2023-12-29T01:36:23;11.80;97.30
3208;DHT22;1616;52.394;9.756;2023-12-29T01:38:49;11.80;97.40
3208;DHT22;1616;52.394;9.756;2023-12-29T01:41:15;11.80;97.50
3208;DHT22;1616;52.394;9.756;2023-12-29T01:46:25;11.80;97.50
3208;DHT22;1616;52.394;9.756;2023-12-29T01:48:52;11.90;97.70
3208;DHT22;1616;52.394;9.756;2023-12-29T01:51:20;11.90;97.60
3208;DHT22;1616;52.394;9.756;2023-12-29T01:53:47;11.90;97.60
3208;DHT22;1616;52.394;9.756;2023-12-29T01:56:14;11.90;97.70
3208;DHT22;1616;52.394;9.756;2023-12-29T01:58:39;11.80;98.00
3208;DHT22;1616;52.394;9.756;2023-12-29T02:01:07;11.70;98.80
3208;DHT22;1616;52.394;9.756;2023-12-29T02:03:34;11.60;99.50
3208;DHT22;1616;52.394;9.756;2023-12-29T02:06:00;11.60;99.90
3208;DHT22;1616;52.394;9.756;2023-12-29T02:08:27;11.50;99.90
3208;DHT22;1616;52.394;9.756;2023-12-29T02:10:53;11.50;99.90
3208;DHT22;1616;52.394;9.756;2023-12-29T02:13:19;11.50;99.90
3208;DHT22;1616;52.394;9.756;2023-12-29T02:15:47;11.50;99.90
3208;DHT22;1616;52.394;9.756;2023-12-29T02:18:14;11.50;99.90
3208;DHT22;1616;52.394;9.756;2023-12-29T02:20:43;11.50;99.90
3208;DHT22;1616;52.394;9.756;2023-12-29T02:23:09;11.50;99.90
3208;DHT22;1616;52.394;9.756;2023-12-29T02:25:37;11.50;99.90
3208;DHT22;1616;52.394;9.756;2023-12-29T02:28:10;11.60;99.90
3208;DHT22;1616;52.394;9.756;2023-12-29T02:30:43;11.60;99.90
3208;DHT22;1616;52.394;9.756;2023-12-29T02:33:14;11.60;99.90
3208;DHT22;1616;52.394;9.756;2023-12-29T02:35:43;11.60;99.90
3208;DHT22;1616;52.394;9.756;2023-12-29T02:38:10;11.60;99.90
3208;DHT22;1616;52.394;9.756;2023-12-29T02:40:36;11.60;99.90
3208;DHT22;1616;52.394;9.756;2023-12-29T02:43:02;11.60;99.90
3208;DHT22;1616;52.394;9.756;2023-12-29T02:45:28;11.70;99.90
3208;DHT22;1616;52.394;9.756;2023-12-29T02:47:54;11.70;99.90
3208;DHT22;1616;52.394;9.756;2023-12-29T02:50:20;11.70;99.90
3208;DHT22;1616;52.394;9.756;2023-12-29T02:52:47;11.70;99.90
3208;DHT22;1616;52.394;9.756;2023-12-29T02:55:12;11.70;99.90
3208;DHT22;1616;52.394;9.756;2023-12-29T02:57:38;11.70;99.90
3208;DHT22;1616;52.394;9.756;2023-12-29T03:00:05;11.70;99.90
3208;DHT22;1616;52.394;9.756;2023-12-29T03:02:31;11.70;99.90
3208;DHT22;1616;52.394;9.756;2023-12-29T03:04:58;11.60;99.90
3208;DHT22;1616;52.394;9.756;2023-12-29T03:07:23;11.70;99.90
3208;DHT22;1616;52.394;9.756;2023-12-29T03:09:49;11.70;99.90
3208;DHT22;1616;52.394;9.756;2023-12-29T03:12:15;11.70;99.90
3208;DHT22;1616;52.394;9.756;2023-12-29T03:14:41;11.70;99.90
3208;DHT22;1616;52.394;9.756;2023-12-29T03:17:06;11.70;99.90
3208;DHT22;1616;52.394;9.756;2023-12-29T03:19:32;11.80;99.90
3208;DHT22;1616;52.394;9.756;2023-12-29T03:21:57;11.70;99.90
3208;DHT22;1616;52.394;9.756;2023-12-29T03:24:23;11.70;99.90
3208;DHT22;1616;52.394;9.756;2023-12-29T03:26:48;11.70;99.90
3208;DHT22;1616;52.394;9.756;2023-12-29T03:29:14;11.70;99.90
3208;DHT22;1616;52.394;9.756;2023-12-29T03:31:40;11.80;99.90
3208;DHT22;1616;52.394;9.756;2023-12-29T03:34:06;11.70;99.90
3208;DHT22;1616;52.394;9.756;2023-12-29T03:36:32;11.70;99.90
3208;DHT22;1616;52.394;9.756;2023-12-29T03:38:58;11.70;99.90
3208;DHT22;1616;52.394;9.756;2023-12-29T03:41:23;11.70;99.90
3208;DHT22;1616;52.394;9.756;2023-12-29T03:43:49;11.70;99.90
3208;DHT22;1616;52.394;9.756;2023-12-29T03:46:18;11.70;99.90
3208;DHT22;1616;52.394;9.756;2023-12-29T03:48:44;11.70;99.90
3208;DHT22;1616;52.394;9.756;2023-12-29T03:51:10;11.80;99.90
3208;DHT22;1616;52.394;9.756;2023-12-29T03:53:36;11.80;99.90
3208;DHT22;1616;52.394;9.756;2023-12-29T03:56:09;11.80;99.90
3208;DHT22;1616;52.394;9.756;2023-12-29T03:58:37;11.80;99.90
3208;DHT22;1616;52.394;9.756;2023-12-29T04:01:03;11.80;99.90
3208;DHT22;1616;52.394;9.756;2023-12-29T04:03:29;11.80;99.90
3208;DHT22;1616;52.394;9.756;2023-12-29T04:05:56;11.70;99.90
3208;DHT22;1616;52.394;9.756;2023-12-29T04:08:21;11.60;99.90
3208;DHT22;1616;52.394;9.756;2023-12-29T04:10:47;11.60;99.90
3208;DHT22;1616;52.394;9.756;2023-12-29T04:13:13;11.50;99.90
3208;DHT22;1616;52.394;9.756;2023-12-29T04:15:38;11.50;99.90
3208;DHT22;1616;52.394;9.756;2023-12-29T04:18:04;11.50;99.90
3208;DHT22;1616;52.394;9.756;2023-12-29T04:20:30;11.50;99.90
3208;DHT22;1616;52.394;9.756;2023-12-29T04:22:56;11.40;99.90
3208;DHT22;1616;52.394;9.756;2023-12-29T04:25:21;11.40;99.90
3208;DHT22;1616;52.394;9.756;2023-12-29T04:27:47;11.40;99.90
3208;DHT22;1616;52.394;9.756;2023-12-29T04:30:13;11.40;99.90
3208;DHT22;1616;52.394;9.756;2023-12-29T04:32:38;11.40;99.90
3208;DHT22;1616;52.394;9.756;2023-12-29T04:35:04;11.40;99.90
3208;DHT22;1616;52.394;9.756;2023-12-29T04:37:30;11.40;99.90
3208;DHT22;1616;52.394;9.756;2023-12-29T04:39:56;11.40;99.90
3208;DHT22;1616;52.394;9.756;2023-12-29T04:42:21;11.40;99.90
3208;DHT22;1616;52.394;9.756;2023-12-29T04:44:47;11.40;99.90
3208;DHT22;1616;52.394;9.756;2023-12-29T04:47:12;11.40;99.90
3208;DHT22;1616;52.394;9.756;2023-12-29T04:49:38;11.40;99.90
3208;DHT22;1616;52.394;9.756;2023-12-29T04:52:04;11.40;99.90
3208;DHT22;1616;52.394;9.756;2023-12-29T04:54:30;11.40;99.90
3208;DHT22;1616;52.394;9.756;2023-12-29T04:56:55;11.40;99.90
3208;DHT22;1616;52.394;9.756;2023-12-29T04:59:21;11.40;99.90
3208;DHT22;1616;52.394;9.756;2023-12-29T05:01:46;11.40;99.90
3208;DHT22;1616;52.394;9.756;2023-12-29T05:04:12;11.40;99.90
3208;DHT22;1616;52.394;9.756;2023-12-29T05:06:40;11.30;99.90
3208;DHT22;1616;52.394;9.756;2023-12-29T05:09:05;11.20;99.90
3208;DHT22;1616;52.394;9.756;2023-12-29T05:11:31;11.00;99.90
3208;DHT22;1616;52.394;9.756;2023-12-29T05:13:57;11.00;99.90
3208;DHT22;1616;52.394;9.756;2023-12-29T05:16:23;11.00;99.90
3208;DHT22;1616;52.394;9.756;2023-12-29T05:18:48;10.90;99.90
3208;DHT22;1616;52.394;9.756;2023-12-29T05:21:18;11.00;99.90
3208;DHT22;1616;52.394;9.756;2023-12-29T05:23:45;10.90;99.90
3208;DHT22;1616;52.394;9.756;2023-12-29T05:26:11;10.90;99.90
3208;DHT22;1616;52.394;9.756;2023-12-29T05:28:37;10.90;99.90
3208;DHT22;1616;52.394;9.756;2023-12-29T05:31:03;10.90;99.90
3208;DHT22;1616;52.394;9.756;2023-12-29T05:33:31;11.00;99.90
3208;DHT22;1616;52.394;9.756;2023-12-29T05:35:57;11.00;99.90
3208;DHT22;1616;52.394;9.756;2023-12-29T05:38:23;11.00;99.90
3208;DHT22;1616;52.394;9.756;2023-12-29T05:40:49;11.00;99.90
3208;DHT22;1616;52.394;9.756;2023-12-29T05:43:15;11.10;99.90
3208;DHT22;1616;52.394;9.756;2023-12-29T05:45:41;11.10;99.90
3208;DHT22;1616;52.394;9.756;2023-12-29T05:48:07;11.10;99.90
3208;DHT22;1616;52.394;9.756;2023-12-29T05:50:33;11.10;99.90
3208;DHT22;1616;52.394;9.756;2023-12-29T05:52:58;11.10;99.90
3208;DHT22;1616;52.394;9.756;2023-12-29T05:55:24;11.10;99.90
3208;DHT22;1616;52.394;9.756;2023-12-29T05:57:50;11.10;99.90
3208;DHT22;1616;52.394;9.756;2023-12-29T06:00:16;11.10;99.90
3208;DHT22;1616;52.394;9.756;2023-12-29T06:02:42;11.10;99.90
3208;DHT22;1616;52.394;9.756;2023-12-29T06:05:10;11.10;99.90
3208;DHT22;1616;52.394;9.756;2023-12-29T06:07:36;11.10;99.90
3208;DHT22;1616;52.394;9.756;2023-12-29T06:10:02;11.20;99.90
3208;DHT22;1616;52.394;9.756;2023-12-29T06:12:27;11.20;99.90
3208;DHT22;1616;52.394;9.756;2023-12-29T06:14:53;11.20;99.90
3208;DHT22;1616;52.394;9.756;2023-12-29T06:17:19;11.20;99.90
3208;DHT22;1616;52.394;9.756;2023-12-29T06:19:44;11.20;99.90
3208;DHT22;1616;52.394;9.756;2023-12-29T06:22:10;11.20;99.90
3208;DHT22;1616;52.394;9.756;2023-12-29T06:24:37;11.20;99.90
3208;DHT22;1616;52.394;9.756;2023-12-29T06:27:03;11.10;99.90
3208;DHT22;1616;52.394;9.756;2023-12-29T06:29:29;11.00;99.90
3208;DHT22;1616;52.394;9.756;2023-12-29T06:31:55;10.90;99.90
3208;DHT22;1616;52.394;9.756;2023-12-29T06:34:20;10.70;99.90
3208;DHT22;1616;52.394;9.756;2023-12-29T06:36:46;10.60;99.90
3208;DHT22;1616;52.394;9.756;2023-12-29T06:39:11;10.50;99.90
3208;DHT22;1616;52.394;9.756;2023-12-29T06:41:37;10.40;99.90
3208;DHT22;1616;52.394;9.756;2023-12-29T06:44:03;10.40;99.90
3208;DHT22;1616;52.394;9.756;2023-12-29T06:46:29;10.30;99.90
3208;DHT22;1616;52.394;9.756;2023-12-29T06:48:55;10.30;99.90
3208;DHT22;1616;52.394;9.756;2023-12-29T06:51:21;10.20;99.90
3208;DHT22;1616;52.394;9.756;2023-12-29T06:53:49;10.20;99.90
3208;DHT22;1616;52.394;9.756;2023-12-29T06:56:15;10.10;99.90
3208;DHT22;1616;52.394;9.756;2023-12-29T06:58:41;10.10;99.90
3208;DHT22;1616;52.394;9.756;2023-12-29T07:01:07;10.10;99.90
3208;DHT22;1616;52.394;9.756;2023-12-29T07:03:33;10.00;99.90
3208;DHT22;1616;52.394;9.756;2023-12-29T07:06:01;10.10;99.90
3208;DHT22;1616;52.394;9.756;2023-12-29T07:08:27;10.00;99.90
3208;DHT22;1616;52.394;9.756;2023-12-29T07:10:53;10.10;99.90
3208;DHT22;1616;52.394;9.756;2023-12-29T07:13:19;10.10;99.90
3208;DHT22;1616;52.394;9.756;2023-12-29T07:15:46;10.10;99.90
3208;DHT22;1616;52.394;9.756;2023-12-29T07:18:12;10.20;99.90
3208;DHT22;1616;52.394;9.756;2023-12-29T07:20:37;10.20;99.90
3208;DHT22;1616;52.394;9.756;2023-12-29T07:23:03;10.20;99.90
3208;DHT22;1616;52.394;9.756;2023-12-29T07:25:29;10.30;99.90
3208;DHT22;1616;52.394;9.756;2023-12-29T07:27:54;10.30;99.90
3208;DHT22;1616;52.394;9.756;2023-12-29T07:30:20;10.40;99.90
3208;DHT22;1616;52.394;9.756;2023-12-29T07:32:45;10.40;99.90
3208;DHT22;1616;52.394;9.756;2023-12-29T07:35:11;10.50;99.90
3208;DHT22;1616;52.394;9.756;2023-12-29T07:37:37;10.60;99.90
3208;DHT22;1616;52.394;9.756;2023-12-29T07:40:03;10.60;99.90
3208;DHT22;1616;52.394;9.756;2023-12-29T07:42:29;10.60;99.90
3208;DHT22;1616;52.394;9.756;2023-12-29T07:44:54;10.70;99.90
3208;DHT22;1616;52.394;9.756;2023-12-29T07:47:22;10.70;99.90
3208;DHT22;1616;52.394;9.756;2023-12-29T07:49:47;10.80;99.90
3208;DHT22;1616;52.394;9.756;2023-12-29T07:52:13;10.90;99.90
3208;DHT22;1616;52.394;9.756;2023-12-29T07:54:41;10.90;99.90
3208;DHT22;1616;52.394;9.756;2023-12-29T07:57:07;11.00;99.90
3208;DHT22;1616;52.394;9.756;2023-12-29T07:59:33;11.00;99.90
3208;DHT22;1616;52.394;9.756;2023-12-29T08:01:59;11.10;99.90
3208;DHT22;1616;52.394;9.756;2023-12-29T08:04:24;11.10;99.90
3208;DHT22;1616;52.394;9.756;2023-12-29T08:06:50;11.20;99.90
3208;DHT22;1616;52.394;9.756;2023-12-29T08:09:16;11.20;99.90
3208;DHT22;1616;52.394;9.756;2023-12-29T08:11:41;11.30;99.90
3208;DHT22;1616;52.394;9.756;2023-12-29T08:14:08;11.30;99.90
3208;DHT22;1616;52.394;9.756;2023-12-29T08:16:40;11.30;99.90
3208;DHT22;1616;52.394;9.756;2023-12-29T08:19:06;11.30;99.90
3208;DHT22;1616;52.394;9.756;2023-12-29T08:21:33;11.40;99.90
3208;DHT22;1616;52.394;9.756;2023-12-29T08:23:59;11.40;99.90
3208;DHT22;1616;52.394;9.756;2023-12-29T08:26:25;11.40;99.90
3208;DHT22;1616;52.394;9.756;2023-12-29T08:28:51;11.50;99.90
3208;DHT22;1616;52.394;9.756;2023-12-29T08:31:18;11.50;99.90
3208;DHT22;1616;52.394;9.756;2023-12-29T08:33:44;11.50;99.90
3208;DHT22;1616;52.394;9.756;2023-12-29T08:36:11;11.60;99.90
3208;DHT22;1616;52.394;9.756;2023-12-29T08:38:36;11.60;99.90
3208;DHT22;1616;52.394;9.756;2023-12-29T08:41:02;11.80;99.90
3208;DHT22;1616;52.394;9.756;2023-12-29T08:43:28;11.70;99.90
3208;DHT22;1616;52.394;9.756;2023-12-29T08:45:55;11.70;99.90
3208;DHT22;1616;52.394;9.756;2023-12-29T08:48:21;11.70;99.90
3208;DHT22;1616;52.394;9.756;2023-12-29T08:50:47;11.80;99.90
3208;DHT22;1616;52.394;9.756;2023-12-29T08:53:12;11.90;99.90
3208;DHT22;1616;52.394;9.756;2023-12-29T08:55:38;12.00;99.90
3208;DHT22;1616;52.394;9.756;2023-12-29T08:58:04;12.00;99.90
3208;DHT22;1616;52.394;9.756;2023-12-29T09:00:30;12.00;99.90
3208;DHT22;1616;52.394;9.756;2023-12-29T09:02:56;12.10;99.90
3208;DHT22;1616;52.394;9.756;2023-12-29T09:05:22;12.10;99.90
3208;DHT22;1616;52.394;9.756;2023-12-29T09:07:48;12.20;99.90
3208;DHT22;1616;52.394;9.756;2023-12-29T09:10:15;12.20;99.90
3208;DHT22;1616;52.394;9.756;2023-12-29T09:12:40;12.20;99.90
3208;DHT22;1616;52.394;9.756;2023-12-29T09:15:07;12.20;99.90
3208;DHT22;1616;52.394;9.756;2023-12-29T09:17:34;12.20;99.90
3208;DHT22;1616;52.394;9.756;2023-12-29T09:20:00;12.30;99.90
3208;DHT22;1616;52.394;9.756;2023-12-29T09:22:26;12.30;99.90
3208;DHT22;1616;52.394;9.756;2023-12-29T09:24:52;12.30;99.90
3208;DHT22;1616;52.394;9.756;2023-12-29T09:27:18;12.40;99.90
3208;DHT22;1616;52.394;9.756;2023-12-29T09:29:43;12.40;99.90
3208;DHT22;1616;52.394;9.756;2023-12-29T09:32:09;12.30;99.90
3208;DHT22;1616;52.394;9.756;2023-12-29T09:34:35;12.30;99.90
3208;DHT22;1616;52.394;9.756;2023-12-29T09:37:00;12.30;99.90
3208;DHT22;1616;52.394;9.756;2023-12-29T09:39:26;12.20;99.90
3208;DHT22;1616;52.394;9.756;2023-12-29T09:41:52;12.10;99.90
3208;DHT22;1616;52.394;9.756;2023-12-29T09:44:21;12.10;99.90
3208;DHT22;1616;52.394;9.756;2023-12-29T09:46:53;12.00;99.90
3208;DHT22;1616;52.394;9.756;2023-12-29T09:49:19;12.00;99.90
3208;DHT22;1616;52.394;9.756;2023-12-29T09:51:45;12.00;99.90
3208;DHT22;1616;52.394;9.756;2023-12-29T09:54:12;11.80;99.90
3208;DHT22;1616;52.394;9.756;2023-12-29T09:56:40;11.70;99.90
3208;DHT22;1616;52.394;9.756;2023-12-29T09:59:10;11.50;99.90
3208;DHT22;1616;52.394;9.756;2023-12-29T10:01:37;11.40;99.90
3208;DHT22;1616;52.394;9.756;2023-12-29T10:04:04;11.20;99.90
3208;DHT22;1616;52.394;9.756;2023-12-29T10:06:34;11.00;99.90
3208;DHT22;1616;52.394;9.756;2023-12-29T10:09:02;10.80;99.90
3208;DHT22;1616;52.394;9.756;2023-12-29T10:11:30;10.60;99.90
3208;DHT22;1616;52.394;9.756;2023-12-29T10:14:05;10.40;99.90
3208;DHT22;1616;52.394;9.756;2023-12-29T10:16:39;10.20;99.90
3208;DHT22;1616;52.394;9.756;2023-12-29T10:19:23;10.10;99.90
3208;DHT22;1616;52.394;9.756;2023-12-29T10:22:13;10.00;99.90
3208;DHT22;1616;52.394;9.756;2023-12-29T10:24:41;9.80;99.90
3208;DHT22;1616;52.394;9.756;2023-12-29T10:27:09;9.90;99.90
3208;DHT22;1616;52.394;9.756;2023-12-29T10:29:36;9.80;99.90
3208;DHT22;1616;52.394;9.756;2023-12-29T10:32:03;9.80;99.90
3208;DHT22;1616;52.394;9.756;2023-12-29T10:34:29;9.80;99.90
3208;DHT22;1616;52.394;9.756;2023-12-29T10:36:58;9.90;99.90
3208;DHT22;1616;52.394;9.756;2023-12-29T10:39:25;9.80;99.90
3208;DHT22;1616;52.394;9.756;2023-12-29T10:42:03;9.80;99.90
3208;DHT22;1616;52.394;9.756;2023-12-29T10:44:30;9.80;99.90
3208;DHT22;1616;52.394;9.756;2023-12-29T10:46:57;9.70;99.90
3208;DHT22;1616;52.394;9.756;2023-12-29T10:49:24;9.70;99.90
3208;DHT22;1616;52.394;9.756;2023-12-29T10:51:50;9.70;99.90
3208;DHT22;1616;52.394;9.756;2023-12-29T10:54:22;9.70;99.90
3208;DHT22;1616;52.394;9.756;2023-12-29T10:57:04;9.70;99.90
3208;DHT22;1616;52.394;9.756;2023-12-29T10:59:29;9.70;99.90
3208;DHT22;1616;52.394;9.756;2023-12-29T11:01:56;9.70;99.90
3208;DHT22;1616;52.394;9.756;2023-12-29T11:04:22;9.70;99.90
3208;DHT22;1616;52.394;9.756;2023-12-29T11:06:48;9.80;99.90
3208;DHT22;1616;52.394;9.756;2023-12-29T11:09:29;9.80;99.90
3208;DHT22;1616;52.394;9.756;2023-12-29T11:12:03;9.80;99.90
3208;DHT22;1616;52.394;9.756;2023-12-29T11:14:29;9.90;99.90
3208;DHT22;1616;52.394;9.756;2023-12-29T11:16:55;9.90;99.90
3208;DHT22;1616;52.394;9.756;2023-12-29T11:19:22;10.00;99.90
3208;DHT22;1616;52.394;9.756;2023-12-29T11:21:56;10.00;99.90
3208;DHT22;1616;52.394;9.756;2023-12-29T11:24:23;10.00;99.90
3208;DHT22;1616;52.394;9.756;2023-12-29T11:26:52;10.20;99.90
3208;DHT22;1616;52.394;9.756;2023-12-29T11:29:18;10.20;99.90
3208;DHT22;1616;52.394;9.756;2023-12-29T11:31:47;10.20;99.90
3208;DHT22;1616;52.394;9.756;2023-12-29T11:34:26;10.30;99.90
3208;DHT22;1616;52.394;9.756;2023-12-29T11:37:06;10.40;99.90
3208;DHT22;1616;52.394;9.756;2023-12-29T11:39:47;10.40;99.90
3208;DHT22;1616;52.394;9.756;2023-12-29T11:42:21;10.50;99.90
3208;DHT22;1616;52.394;9.756;2023-12-29T11:44:48;10.60;99.90
3208;DHT22;1616;52.394;9.756;2023-12-29T11:47:36;10.70;99.90
3208;DHT22;1616;52.394;9.756;2023-12-29T11:50:04;10.80;99.90
3208;DHT22;1616;52.394;9.756;2023-12-29T11:52:34;10.90;99.90
3208;DHT22;1616;52.394;9.756;2023-12-29T11:55:13;11.00;99.90
3208;DHT22;1616;52.394;9.756;2023-12-29T11:57:40;11.00;99.90
3208;DHT22;1616;52.394;9.756;2023-12-29T12:00:07;11.10;99.90
3208;DHT22;1616;52.394;9.756;2023-12-29T12:02:33;11.10;99.90
3208;DHT22;1616;52.394;9.756;2023-12-29T12:04:59;11.20;99.90
3208;DHT22;1616;52.394;9.756;2023-12-29T12:09:50;11.30;99.90
3208;DHT22;1616;52.394;9.756;2023-12-29T12:12:42;11.40;99.90
3208;DHT22;1616;52.394;9.756;2023-12-29T12:18:02;11.60;99.90
3208;DHT22;1616;52.394;9.756;2023-12-29T12:20:35;11.60;99.90
3208;DHT22;1616;52.394;9.756;2023-12-29T12:23:03;11.70;99.90
3208;DHT22;1616;52.394;9.756;2023-12-29T12:25:31;11.70;99.90
3208;DHT22;1616;52.394;9.756;2023-12-29T12:28:14;11.80;99.90
3208;DHT22;1616;52.394;9.756;2023-12-29T12:30:39;11.90;99.90
3208;DHT22;1616;52.394;9.756;2023-12-29T12:33:05;11.90;99.90
3208;DHT22;1616;52.394;9.756;2023-12-29T12:35:32;12.00;99.90
3208;DHT22;1616;52.394;9.756;2023-12-29T12:38:16;12.00;99.90
3208;DHT22;1616;52.394;9.756;2023-12-29T12:40:46;12.00;99.90
3208;DHT22;1616;52.394;9.756;2023-12-29T12:43:16;12.00;99.90
3208;DHT22;1616;52.394;9.756;2023-12-29T12:45:53;12.00;99.90
3208;DHT22;1616;52.394;9.756;2023-12-29T12:48:23;12.00;99.90
3208;DHT22;1616;52.394;9.756;2023-12-29T12:50:54;12.10;99.90
3208;DHT22;1616;52.394;9.756;2023-12-29T12:53:23;12.00;99.90
3208;DHT22;1616;52.394;9.756;2023-12-29T12:55:49;12.10;99.90
3208;DHT22;1616;52.394;9.756;2023-12-29T12:58:19;12.10;99.90
3208;DHT22;1616;52.394;9.756;2023-12-29T13:00:46;12.10;99.90
3208;DHT22;1616;52.394;9.756;2023-12-29T13:03:13;12.10;99.90
3208;DHT22;1616;52.394;9.756;2023-12-29T13:05:39;12.10;99.90
3208;DHT22;1616;52.394;9.756;2023-12-29T13:08:06;12.10;99.90
3208;DHT22;1616;52.394;9.756;2023-12-29T13:10:32;12.10;99.90
3208;DHT22;1616;52.394;9.756;2023-12-29T13:12:57;12.10;99.90
3208;DHT22;1616;52.394;9.756;2023-12-29T13:15:23;12.10;99.90
3208;DHT22;1616;52.394;9.756;2023-12-29T13:17:55;12.10;99.90
3208;DHT22;1616;52.394;9.756;2023-12-29T13:20:21;12.10;99.90
3208;DHT22;1616;52.394;9.756;2023-12-29T13:22:50;12.10;99.90
3208;DHT22;1616;52.394;9.756;2023-12-29T13:25:25;12.00;99.90
3208;DHT22;1616;52.394;9.756;2023-12-29T13:27:53;12.00;99.90
3208;DHT22;1616;52.394;9.756;2023-12-29T13:30:20;12.00;99.90
3208;DHT22;1616;52.394;9.756;2023-12-29T13:32:47;12.00;99.90
3208;DHT22;1616;52.394;9.756;2023-12-29T13:35:21;12.00;99.90
3208;DHT22;1616;52.394;9.756;2023-12-29T13:38:05;12.00;99.90
3208;DHT22;1616;52.394;9.756;2023-12-29T13:40:59;11.90;99.90
3208;DHT22;1616;52.394;9.756;2023-12-29T13:43:29;11.90;99.90
3208;DHT22;1616;52.394;9.756;2023-12-29T13:45:56;12.00;99.90
3208;DHT22;1616;52.394;9.756;2023-12-29T13:48:22;12.00;99.90
3208;DHT22;1616;52.394;9.756;2023-12-29T13:50:49;12.00;99.90
3208;DHT22;1616;52.394;9.756;2023-12-29T13:53:18;12.00;99.90
3208;DHT22;1616;52.394;9.756;2023-12-29T13:55:44;12.00;99.90
3208;DHT22;1616;52.394;9.756;2023-12-29T13:58:10;12.00;99.90
3208;DHT22;1616;52.394;9.756;2023-12-29T14:00:38;12.00;99.90
3208;DHT22;1616;52.394;9.756;2023-12-29T14:03:27;12.00;99.90
3208;DHT22;1616;52.394;9.756;2023-12-29T14:06:04;11.90;99.90
3208;DHT22;1616;52.394;9.756;2023-12-29T14:08:39;11.90;99.90
3208;DHT22;1616;52.394;9.756;2023-12-29T14:11:09;11.80;99.90
3208;DHT22;1616;52.394;9.756;2023-12-29T14:13:39;11.80;99.90
3208;DHT22;1616;52.394;9.756;2023-12-29T14:16:06;11.80;99.90
3208;DHT22;1616;52.394;9.756;2023-12-29T14:21:30;11.70;99.90
3208;DHT22;1616;52.394;9.756;2023-12-29T14:24:13;11.70;99.90
3208;DHT22;1616;52.394;9.756;2023-12-29T14:29:08;11.70;99.90
3208;DHT22;1616;52.394;9.756;2023-12-29T14:31:39;11.70;99.90
3208;DHT22;1616;52.394;9.756;2023-12-29T14:34:06;11.70;99.90
3208;DHT22;1616;52.394;9.756;2023-12-29T14:36:32;11.70;99.90
3208;DHT22;1616;52.394;9.756;2023-12-29T14:38:58;11.70;99.90
3208;DHT22;1616;52.394;9.756;2023-12-29T14:41:24;11.70;99.90
3208;DHT22;1616;52.394;9.756;2023-12-29T14:43:50;11.70;99.90
3208;DHT22;1616;52.394;9.756;2023-12-29T14:46:16;11.80;99.90
3208;DHT22;1616;52.394;9.756;2023-12-29T14:48:42;11.80;99.90
3208;DHT22;1616;52.394;9.756;2023-12-29T14:51:08;11.70;99.90
3208;DHT22;1616;52.394;9.756;2023-12-29T14:53:34;11.70;99.90
3208;DHT22;1616;52.394;9.756;2023-12-29T14:56:00;11.70;99.90
3208;DHT22;1616;52.394;9.756;2023-12-29T14:58:26;11.70;99.90
3208;DHT22;1616;52.394;9.756;2023-12-29T15:00:53;11.60;99.90
3208;DHT22;1616;52.394;9.756;2023-12-29T15:03:19;11.60;99.90
3208;DHT22;1616;52.394;9.756;2023-12-29T15:05:46;11.50;99.90
3208;DHT22;1616;52.394;9.756;2023-12-29T15:08:13;11.50;99.90
3208;DHT22;1616;52.394;9.756;2023-12-29T15:10:38;11.40;99.90
3208;DHT22;1616;52.394;9.756;2023-12-29T15:13:04;11.40;99.90
3208;DHT22;1616;52.394;9.756;2023-12-29T15:15:33;11.30;99.90
3208;DHT22;1616;52.394;9.756;2023-12-29T15:17:59;11.30;99.90
3208;DHT22;1616;52.394;9.756;2023-12-29T15:20:25;11.30;99.90
3208;DHT22;1616;52.394;9.756;2023-12-29T15:22:51;11.30;99.90
3208;DHT22;1616;52.394;9.756;2023-12-29T15:25:21;11.30;99.90
3208;DHT22;1616;52.394;9.756;2023-12-29T15:27:48;11.30;99.90
3208;DHT22;1616;52.394;9.756;2023-12-29T15:30:14;11.30;99.90
3208;DHT22;1616;52.394;9.756;2023-12-29T15:32:40;11.30;99.90
3208;DHT22;1616;52.394;9.756;2023-12-29T15:35:06;11.30;99.90
3208;DHT22;1616;52.394;9.756;2023-12-29T15:37:32;11.30;99.90
3208;DHT22;1616;52.394;9.756;2023-12-29T15:39:58;11.30;99.90
3208;DHT22;1616;52.394;9.756;2023-12-29T15:42:26;11.30;99.90
3208;DHT22;1616;52.394;9.756;2023-12-29T15:44:52;11.30;99.90
3208;DHT22;1616;52.394;9.756;2023-12-29T15:47:18;11.30;99.90
3208;DHT22;1616;52.394;9.756;2023-12-29T15:49:43;11.30;99.90
3208;DHT22;1616;52.394;9.756;2023-12-29T15:52:09;11.30;99.90
3208;DHT22;1616;52.394;9.756;2023-12-29T15:54:34;11.30;99.90
3208;DHT22;1616;52.394;9.756;2023-12-29T15:57:00;11.30;99.90
3208;DHT22;1616;52.394;9.756;2023-12-29T15:59:28;11.30;99.90
3208;DHT22;1616;52.394;9.756;2023-12-29T16:01:54;11.30;99.90
3208;DHT22;1616;52.394;9.756;2023-12-29T16:04:20;11.30;99.90
3208;DHT22;1616;52.394;9.756;2023-12-29T16:06:45;11.30;99.90
3208;DHT22;1616;52.394;9.756;2023-12-29T16:09:11;11.30;99.90
3208;DHT22;1616;52.394;9.756;2023-12-29T16:11:36;11.30;99.90
3208;DHT22;1616;52.394;9.756;2023-12-29T16:14:02;11.30;99.90
3208;DHT22;1616;52.394;9.756;2023-12-29T16:16:28;11.30;99.90